sensor_id;sensor_type;location;lat;lon;timestamp;temperature;humidity
76345;DHT22;65160;50.504;3.666;2023-02-22T00:00:37;2.86;88.85
76345;DHT22;65160;50.504;3.666;2023-02-22T00:03:20;2.85;88.89
76345;DHT22;65160;50.504;3.666;2023-02-22T00:05:54;2.90;88.99
76345;DHT22;65160;50.504;3.666;2023-02-22T00:08:23;2.90;88.97
76345;DHT22;65160;50.504;3.666;2023-02-22T00:10:49;2.89;89.13
76345;DHT22;65160;50.504;3.666;2023-02-22T00:13:18;2.87;89.30
76345;DHT22;65160;50.504;3.666;2023-02-22T00:15:47;2.83;89.37
76345;DHT22;65160;50.504;3.666;2023-02-22T00:18:14;2.80;89.35
76345;DHT22;65160;50.504;3.666;2023-02-22T00:20:40;2.85;89.45
76345;DHT22;65160;50.504;3.666;2023-02-22T00:23:11;2.80;89.46
76345;DHT22;65160;50.504;3.666;2023-02-22T00:25:37;2.83;89.56
76345;DHT22;65160;50.504;3.666;2023-02-22T00:28:03;2.83;89.53
76345;DHT22;65160;50.504;3.666;2023-02-22T00:30:30;2.83;89.63
76345;DHT22;65160;50.504;3.666;2023-02-22T00:32:57;2.86;89.62
76345;DHT22;65160;50.504;3.666;2023-02-22T00:35:24;2.82;89.52
76345;DHT22;65160;50.504;3.666;2023-02-22T00:37:52;2.82;89.66
76345;DHT22;65160;50.504;3.666;2023-02-22T00:40:23;2.85;89.62
76345;DHT22;65160;50.504;3.666;2023-02-22T00:42:50;2.83;89.67
76345;DHT22;65160;50.504;3.666;2023-02-22T00:45:18;2.82;89.69
76345;DHT22;65160;50.504;3.666;2023-02-22T00:47:44;2.82;89.76
76345;DHT22;65160;50.504;3.666;2023-02-22T00:50:10;2.85;89.77
76345;DHT22;65160;50.504;3.666;2023-02-22T00:52:36;2.86;89.88
76345;DHT22;65160;50.504;3.666;2023-02-22T00:55:03;2.83;89.78
76345;DHT22;65160;50.504;3.666;2023-02-22T00:57:30;2.82;89.76
76345;DHT22;65160;50.504;3.666;2023-02-22T00:59:56;2.85;89.73
76345;DHT22;65160;50.504;3.666;2023-02-22T01:02:21;2.77;89.79
76345;DHT22;65160;50.504;3.666;2023-02-22T01:04:47;2.79;89.84
76345;DHT22;65160;50.504;3.666;2023-02-22T01:07:12;2.82;89.84
76345;DHT22;65160;50.504;3.666;2023-02-22T01:09:38;2.79;89.79
76345;DHT22;65160;50.504;3.666;2023-02-22T01:12:06;2.79;89.91
76345;DHT22;65160;50.504;3.666;2023-02-22T01:14:32;2.79;89.87
76345;DHT22;65160;50.504;3.666;2023-02-22T01:16:58;2.80;89.97
76345;DHT22;65160;50.504;3.666;2023-02-22T01:19:24;2.80;89.83
76345;DHT22;65160;50.504;3.666;2023-02-22T01:21:49;2.75;89.82
76345;DHT22;65160;50.504;3.666;2023-02-22T01:24:16;2.73;89.88
76345;DHT22;65160;50.504;3.666;2023-02-22T01:26:42;2.69;89.90
76345;DHT22;65160;50.504;3.666;2023-02-22T01:29:13;2.65;90.04
76345;DHT22;65160;50.504;3.666;2023-02-22T01:31:40;2.63;90.13
76345;DHT22;65160;50.504;3.666;2023-02-22T01:34:09;2.59;90.04
76345;DHT22;65160;50.504;3.666;2023-02-22T01:36:35;2.58;90.15
76345;DHT22;65160;50.504;3.666;2023-02-22T01:39:00;2.58;90.37
76345;DHT22;65160;50.504;3.666;2023-02-22T01:41:26;2.62;90.39
76345;DHT22;65160;50.504;3.666;2023-02-22T01:43:51;2.62;90.32
76345;DHT22;65160;50.504;3.666;2023-02-22T01:46:24;2.62;90.10
76345;DHT22;65160;50.504;3.666;2023-02-22T01:51:25;2.55;90.21
76345;DHT22;65160;50.504;3.666;2023-02-22T01:54:02;2.52;90.38
76345;DHT22;65160;50.504;3.666;2023-02-22T01:56:32;2.52;90.50
76345;DHT22;65160;50.504;3.666;2023-02-22T01:59:02;2.50;90.48
76345;DHT22;65160;50.504;3.666;2023-02-22T02:01:30;2.50;90.67
76345;DHT22;65160;50.504;3.666;2023-02-22T02:03:58;2.58;90.85
76345;DHT22;65160;50.504;3.666;2023-02-22T02:06:26;2.58;90.64
76345;DHT22;65160;50.504;3.666;2023-02-22T02:09:02;2.50;90.57
76345;DHT22;65160;50.504;3.666;2023-02-22T02:11:28;2.48;90.57
76345;DHT22;65160;50.504;3.666;2023-02-22T02:13:56;2.46;90.59
76345;DHT22;65160;50.504;3.666;2023-02-22T02:16:25;2.46;90.60
76345;DHT22;65160;50.504;3.666;2023-02-22T02:18:53;2.44;90.53
76345;DHT22;65160;50.504;3.666;2023-02-22T02:29:32;2.44;90.37
76345;DHT22;65160;50.504;3.666;2023-02-22T02:37:11;2.46;90.28
76345;DHT22;65160;50.504;3.666;2023-02-22T02:40:16;2.39;90.23
76345;DHT22;65160;50.504;3.666;2023-02-22T02:42:52;2.45;90.29
76345;DHT22;65160;50.504;3.666;2023-02-22T02:45:26;2.49;90.27
76345;DHT22;65160;50.504;3.666;2023-02-22T02:47:54;2.49;90.22
76345;DHT22;65160;50.504;3.666;2023-02-22T02:50:27;2.48;90.17
76345;DHT22;65160;50.504;3.666;2023-02-22T02:52:57;2.46;90.22
76345;DHT22;65160;50.504;3.666;2023-02-22T02:55:23;2.44;90.26
76345;DHT22;65160;50.504;3.666;2023-02-22T02:57:49;2.49;90.36
76345;DHT22;65160;50.504;3.666;2023-02-22T03:00:20;2.52;90.36
76345;DHT22;65160;50.504;3.666;2023-02-22T03:08:33;2.52;90.22
76345;DHT22;65160;50.504;3.666;2023-02-22T03:11:18;2.55;90.23
76345;DHT22;65160;50.504;3.666;2023-02-22T03:16:58;2.59;90.24
76345;DHT22;65160;50.504;3.666;2023-02-22T03:22:11;2.63;90.23
76345;DHT22;65160;50.504;3.666;2023-02-22T03:24:46;2.66;90.32
76345;DHT22;65160;50.504;3.666;2023-02-22T03:27:22;2.67;90.27
76345;DHT22;65160;50.504;3.666;2023-02-22T03:29:53;2.69;90.31
76345;DHT22;65160;50.504;3.666;2023-02-22T03:32:22;2.71;90.20
76345;DHT22;65160;50.504;3.666;2023-02-22T03:34:57;2.73;90.11
76345;DHT22;65160;50.504;3.666;2023-02-22T03:37:27;2.72;90.23
76345;DHT22;65160;50.504;3.666;2023-02-22T03:39:54;2.71;90.26
76345;DHT22;65160;50.504;3.666;2023-02-22T03:42:24;2.69;90.31
76345;DHT22;65160;50.504;3.666;2023-02-22T03:44:52;2.72;90.39
76345;DHT22;65160;50.504;3.666;2023-02-22T03:47:22;2.80;90.43
76345;DHT22;65160;50.504;3.666;2023-02-22T03:50:00;2.80;90.35
76345;DHT22;65160;50.504;3.666;2023-02-22T03:52:32;2.80;90.27
76345;DHT22;65160;50.504;3.666;2023-02-22T03:54:59;2.85;90.33
76345;DHT22;65160;50.504;3.666;2023-02-22T03:57:31;2.83;90.24
76345;DHT22;65160;50.504;3.666;2023-02-22T03:59:58;2.83;90.19
76345;DHT22;65160;50.504;3.666;2023-02-22T04:02:23;2.87;90.24
76345;DHT22;65160;50.504;3.666;2023-02-22T04:04:49;2.89;90.36
76345;DHT22;65160;50.504;3.666;2023-02-22T04:07:15;2.96;90.35
76345;DHT22;65160;50.504;3.666;2023-02-22T04:09:41;3.04;90.33
76345;DHT22;65160;50.504;3.666;2023-02-22T04:12:06;3.05;90.40
76345;DHT22;65160;50.504;3.666;2023-02-22T04:14:32;3.11;90.36
76345;DHT22;65160;50.504;3.666;2023-02-22T04:16:58;3.11;90.22
76345;DHT22;65160;50.504;3.666;2023-02-22T04:19:24;3.14;90.21
76345;DHT22;65160;50.504;3.666;2023-02-22T04:21:49;3.10;90.26
76345;DHT22;65160;50.504;3.666;2023-02-22T04:24:15;3.10;90.41
76345;DHT22;65160;50.504;3.666;2023-02-22T04:26:40;3.10;90.53
76345;DHT22;65160;50.504;3.666;2023-02-22T04:29:06;3.11;90.63
76345;DHT22;65160;50.504;3.666;2023-02-22T04:31:32;3.13;90.68
76345;DHT22;65160;50.504;3.666;2023-02-22T04:33:59;3.11;90.70
76345;DHT22;65160;50.504;3.666;2023-02-22T04:36:25;3.13;90.79
76345;DHT22;65160;50.504;3.666;2023-02-22T04:38:51;3.14;90.86
76345;DHT22;65160;50.504;3.666;2023-02-22T04:41:18;3.11;90.90
76345;DHT22;65160;50.504;3.666;2023-02-22T04:43:43;3.17;91.06
76345;DHT22;65160;50.504;3.666;2023-02-22T04:46:09;3.20;91.08
76345;DHT22;65160;50.504;3.666;2023-02-22T04:48:34;3.20;91.08
76345;DHT22;65160;50.504;3.666;2023-02-22T04:51:00;3.23;91.08
76345;DHT22;65160;50.504;3.666;2023-02-22T04:53:25;3.21;91.08
76345;DHT22;65160;50.504;3.666;2023-02-22T04:55:51;3.21;91.06
76345;DHT22;65160;50.504;3.666;2023-02-22T04:58:17;3.21;91.14
76345;DHT22;65160;50.504;3.666;2023-02-22T05:00:42;3.24;91.17
76345;DHT22;65160;50.504;3.666;2023-02-22T05:03:08;3.21;91.19
76345;DHT22;65160;50.504;3.666;2023-02-22T05:05:33;3.21;91.30
76345;DHT22;65160;50.504;3.666;2023-02-22T05:07:59;3.24;91.36
76345;DHT22;65160;50.504;3.666;2023-02-22T05:10:24;3.24;91.33
76345;DHT22;65160;50.504;3.666;2023-02-22T05:12:50;3.25;91.38
76345;DHT22;65160;50.504;3.666;2023-02-22T05:15:20;3.36;91.34
76345;DHT22;65160;50.504;3.666;2023-02-22T05:17:46;3.35;91.34
76345;DHT22;65160;50.504;3.666;2023-02-22T05:22:47;3.35;91.30
76345;DHT22;65160;50.504;3.666;2023-02-22T05:25:13;3.39;91.33
76345;DHT22;65160;50.504;3.666;2023-02-22T05:27:38;3.39;91.34
76345;DHT22;65160;50.504;3.666;2023-02-22T05:30:04;3.36;91.42
76345;DHT22;65160;50.504;3.666;2023-02-22T05:32:33;3.36;91.51
76345;DHT22;65160;50.504;3.666;2023-02-22T05:34:59;3.38;91.58
76345;DHT22;65160;50.504;3.666;2023-02-22T05:37:24;3.36;91.59
76345;DHT22;65160;50.504;3.666;2023-02-22T05:39:50;3.38;91.66
76345;DHT22;65160;50.504;3.666;2023-02-22T05:42:16;3.38;91.72
76345;DHT22;65160;50.504;3.666;2023-02-22T05:44:41;3.39;91.75
76345;DHT22;65160;50.504;3.666;2023-02-22T05:47:06;3.41;91.75
76345;DHT22;65160;50.504;3.666;2023-02-22T05:49:32;3.39;91.75
76345;DHT22;65160;50.504;3.666;2023-02-22T05:51:57;3.35;91.74
76345;DHT22;65160;50.504;3.666;2023-02-22T05:54:24;3.38;91.79
76345;DHT22;65160;50.504;3.666;2023-02-22T05:56:50;3.36;91.82
76345;DHT22;65160;50.504;3.666;2023-02-22T05:59:15;3.38;91.85
76345;DHT22;65160;50.504;3.666;2023-02-22T06:01:41;3.41;91.86
76345;DHT22;65160;50.504;3.666;2023-02-22T06:04:06;3.39;91.95
76345;DHT22;65160;50.504;3.666;2023-02-22T06:06:33;3.45;91.96
76345;DHT22;65160;50.504;3.666;2023-02-22T06:08:58;3.51;92.00
76345;DHT22;65160;50.504;3.666;2023-02-22T06:11:24;3.51;91.89
76345;DHT22;65160;50.504;3.666;2023-02-22T06:13:50;3.45;91.95
76345;DHT22;65160;50.504;3.666;2023-02-22T06:16:16;3.46;92.00
76345;DHT22;65160;50.504;3.666;2023-02-22T06:18:42;3.48;92.11
76345;DHT22;65160;50.504;3.666;2023-02-22T06:21:08;3.52;92.16
76345;DHT22;65160;50.504;3.666;2023-02-22T06:23:33;3.48;92.09
76345;DHT22;65160;50.504;3.666;2023-02-22T06:25:59;3.48;92.13
76345;DHT22;65160;50.504;3.666;2023-02-22T06:28:24;3.51;92.21
76345;DHT22;65160;50.504;3.666;2023-02-22T06:30:51;3.51;92.18
76345;DHT22;65160;50.504;3.666;2023-02-22T06:33:16;3.54;92.21
76345;DHT22;65160;50.504;3.666;2023-02-22T06:35:42;3.63;92.19
76345;DHT22;65160;50.504;3.666;2023-02-22T06:38:07;3.62;92.05
76345;DHT22;65160;50.504;3.666;2023-02-22T06:40:33;3.63;92.06
76345;DHT22;65160;50.504;3.666;2023-02-22T06:42:58;3.65;92.08
76345;DHT22;65160;50.504;3.666;2023-02-22T06:45:24;3.66;92.11
76345;DHT22;65160;50.504;3.666;2023-02-22T06:47:50;3.66;92.15
76345;DHT22;65160;50.504;3.666;2023-02-22T06:50:26;3.70;92.21
76345;DHT22;65160;50.504;3.666;2023-02-22T06:52:56;3.69;92.23
76345;DHT22;65160;50.504;3.666;2023-02-22T06:55:27;3.75;92.29
76345;DHT22;65160;50.504;3.666;2023-02-22T06:57:53;3.80;92.26
76345;DHT22;65160;50.504;3.666;2023-02-22T07:00:21;3.87;92.23
76345;DHT22;65160;50.504;3.666;2023-02-22T07:02:48;3.90;92.21
76345;DHT22;65160;50.504;3.666;2023-02-22T07:05:15;3.96;92.31
76345;DHT22;65160;50.504;3.666;2023-02-22T07:07:41;4.06;92.29
76345;DHT22;65160;50.504;3.666;2023-02-22T07:10:14;4.11;92.33
76345;DHT22;65160;50.504;3.666;2023-02-22T07:12:40;4.20;92.38
76345;DHT22;65160;50.504;3.666;2023-02-22T07:15:05;4.24;92.36
76345;DHT22;65160;50.504;3.666;2023-02-22T07:17:31;4.45;92.31
76345;DHT22;65160;50.504;3.666;2023-02-22T07:19:56;4.52;92.06
76345;DHT22;65160;50.504;3.666;2023-02-22T07:22:22;4.58;91.88
76345;DHT22;65160;50.504;3.666;2023-02-22T07:24:47;4.58;91.84
76345;DHT22;65160;50.504;3.666;2023-02-22T07:27:13;4.68;91.90
76345;DHT22;65160;50.504;3.666;2023-02-22T07:29:41;4.76;91.71
76345;DHT22;65160;50.504;3.666;2023-02-22T07:32:07;4.93;91.32
76345;DHT22;65160;50.504;3.666;2023-02-22T07:34:32;5.13;90.68
76345;DHT22;65160;50.504;3.666;2023-02-22T07:36:58;5.27;90.05
76345;DHT22;65160;50.504;3.666;2023-02-22T07:39:23;5.45;89.18
76345;DHT22;65160;50.504;3.666;2023-02-22T07:41:49;5.55;88.75
76345;DHT22;65160;50.504;3.666;2023-02-22T07:44:14;5.59;88.61
76345;DHT22;65160;50.504;3.666;2023-02-22T07:46:40;5.75;87.95
76345;DHT22;65160;50.504;3.666;2023-02-22T07:49:05;5.86;87.57
76345;DHT22;65160;50.504;3.666;2023-02-22T07:51:31;5.83;87.59
76345;DHT22;65160;50.504;3.666;2023-02-22T07:53:56;5.87;87.39
76345;DHT22;65160;50.504;3.666;2023-02-22T07:56:22;5.93;87.30
76345;DHT22;65160;50.504;3.666;2023-02-22T07:58:47;5.99;87.28
76345;DHT22;65160;50.504;3.666;2023-02-22T08:01:12;6.02;87.21
76345;DHT22;65160;50.504;3.666;2023-02-22T08:03:38;6.07;86.97
76345;DHT22;65160;50.504;3.666;2023-02-22T08:06:05;6.18;86.85
76345;DHT22;65160;50.504;3.666;2023-02-22T08:08:31;6.21;86.70
76345;DHT22;65160;50.504;3.666;2023-02-22T08:10:57;6.34;86.45
76345;DHT22;65160;50.504;3.666;2023-02-22T08:13:23;6.41;86.55
76345;DHT22;65160;50.504;3.666;2023-02-22T08:15:51;6.34;86.93
76345;DHT22;65160;50.504;3.666;2023-02-22T08:18:18;6.44;86.31
76345;DHT22;65160;50.504;3.666;2023-02-22T08:20:46;6.46;86.87
76345;DHT22;65160;50.504;3.666;2023-02-22T08:23:12;6.45;87.44
76345;DHT22;65160;50.504;3.666;2023-02-22T08:25:38;6.55;87.06
76345;DHT22;65160;50.504;3.666;2023-02-22T08:28:06;6.59;86.43
76345;DHT22;65160;50.504;3.666;2023-02-22T08:30:33;6.69;86.78
76345;DHT22;65160;50.504;3.666;2023-02-22T08:32:59;6.83;85.92
76345;DHT22;65160;50.504;3.666;2023-02-22T08:35:27;6.90;85.68
76345;DHT22;65160;50.504;3.666;2023-02-22T08:37:56;6.93;85.54
76345;DHT22;65160;50.504;3.666;2023-02-22T08:40:25;6.99;85.40
76345;DHT22;65160;50.504;3.666;2023-02-22T08:42:52;7.11;84.77
76345;DHT22;65160;50.504;3.666;2023-02-22T08:45:17;7.16;85.14
76345;DHT22;65160;50.504;3.666;2023-02-22T08:47:43;7.25;84.83
76345;DHT22;65160;50.504;3.666;2023-02-22T08:50:16;7.25;85.00
76345;DHT22;65160;50.504;3.666;2023-02-22T08:52:41;7.27;84.69
76345;DHT22;65160;50.504;3.666;2023-02-22T08:55:07;7.30;85.06
76345;DHT22;65160;50.504;3.666;2023-02-22T08:57:32;7.35;85.43
76345;DHT22;65160;50.504;3.666;2023-02-22T08:59:58;7.44;85.65
76345;DHT22;65160;50.504;3.666;2023-02-22T09:02:23;7.62;85.22
76345;DHT22;65160;50.504;3.666;2023-02-22T09:04:49;7.80;84.75
76345;DHT22;65160;50.504;3.666;2023-02-22T09:07:15;7.85;84.80
76345;DHT22;65160;50.504;3.666;2023-02-22T09:09:42;7.90;84.88
76345;DHT22;65160;50.504;3.666;2023-02-22T09:12:08;7.99;84.31
76345;DHT22;65160;50.504;3.666;2023-02-22T09:14:34;8.16;82.83
76345;DHT22;65160;50.504;3.666;2023-02-22T09:17:00;8.23;82.74
76345;DHT22;65160;50.504;3.666;2023-02-22T09:19:25;8.27;83.27
76345;DHT22;65160;50.504;3.666;2023-02-22T09:21:55;8.27;82.57
76345;DHT22;65160;50.504;3.666;2023-02-22T09:24:20;8.30;82.83
76345;DHT22;65160;50.504;3.666;2023-02-22T09:26:47;8.31;82.95
76345;DHT22;65160;50.504;3.666;2023-02-22T09:29:17;8.27;82.78
76345;DHT22;65160;50.504;3.666;2023-02-22T09:31:47;8.28;83.40
76345;DHT22;65160;50.504;3.666;2023-02-22T09:34:13;8.24;83.44
76345;DHT22;65160;50.504;3.666;2023-02-22T09:36:40;8.33;83.97
76345;DHT22;65160;50.504;3.666;2023-02-22T09:39:06;8.34;83.69
76345;DHT22;65160;50.504;3.666;2023-02-22T09:47:18;8.58;83.71
76345;DHT22;65160;50.504;3.666;2023-02-22T09:49:55;8.71;83.59
76345;DHT22;65160;50.504;3.666;2023-02-22T09:52:38;8.72;83.48
76345;DHT22;65160;50.504;3.666;2023-02-22T09:55:39;8.82;83.58
76345;DHT22;65160;50.504;3.666;2023-02-22T09:58:23;8.92;83.56
76345;DHT22;65160;50.504;3.666;2023-02-22T10:00:56;8.87;83.39
76345;DHT22;65160;50.504;3.666;2023-02-22T10:03:29;8.96;83.00
76345;DHT22;65160;50.504;3.666;2023-02-22T10:06:00;8.97;82.88
76345;DHT22;65160;50.504;3.666;2023-02-22T10:08:30;9.06;82.88
76345;DHT22;65160;50.504;3.666;2023-02-22T10:16:35;9.27;82.52
76345;DHT22;65160;50.504;3.666;2023-02-22T10:25:02;9.35;81.61
76345;DHT22;65160;50.504;3.666;2023-02-22T10:27:47;9.37;81.93
76345;DHT22;65160;50.504;3.666;2023-02-22T10:30:28;9.42;81.61
76345;DHT22;65160;50.504;3.666;2023-02-22T10:35:29;9.58;81.06
76345;DHT22;65160;50.504;3.666;2023-02-22T10:38:23;9.62;81.49
76345;DHT22;65160;50.504;3.666;2023-02-22T10:43:19;9.65;81.64
76345;DHT22;65160;50.504;3.666;2023-02-22T10:45:45;9.63;81.48
76345;DHT22;65160;50.504;3.666;2023-02-22T10:48:16;9.74;81.12
76345;DHT22;65160;50.504;3.666;2023-02-22T10:50:44;9.83;81.06
76345;DHT22;65160;50.504;3.666;2023-02-22T10:53:11;9.90;81.18
76345;DHT22;65160;50.504;3.666;2023-02-22T10:58:59;9.90;81.14
76345;DHT22;65160;50.504;3.666;2023-02-22T11:01:37;9.95;81.60
76345;DHT22;65160;50.504;3.666;2023-02-22T11:04:17;9.96;81.26
76345;DHT22;65160;50.504;3.666;2023-02-22T11:06:46;10.07;81.36
76345;DHT22;65160;50.504;3.666;2023-02-22T11:09:20;10.18;81.91
76345;DHT22;65160;50.504;3.666;2023-02-22T11:12:05;10.20;80.65
76345;DHT22;65160;50.504;3.666;2023-02-22T11:14:31;10.34;80.86
76345;DHT22;65160;50.504;3.666;2023-02-22T11:16:58;10.48;81.04
76345;DHT22;65160;50.504;3.666;2023-02-22T11:19:26;10.50;80.85
76345;DHT22;65160;50.504;3.666;2023-02-22T11:21:56;10.48;80.21
76345;DHT22;65160;50.504;3.666;2023-02-22T11:24:24;10.45;80.67
76345;DHT22;65160;50.504;3.666;2023-02-22T11:26:57;10.41;80.77
76345;DHT22;65160;50.504;3.666;2023-02-22T11:29:30;10.36;80.80
76345;DHT22;65160;50.504;3.666;2023-02-22T11:31:59;10.34;80.74
76345;DHT22;65160;50.504;3.666;2023-02-22T11:34:29;10.21;81.44
76345;DHT22;65160;50.504;3.666;2023-02-22T11:36:56;10.21;81.21
76345;DHT22;65160;50.504;3.666;2023-02-22T11:39:26;10.12;81.83
76345;DHT22;65160;50.504;3.666;2023-02-22T11:41:55;10.02;82.15
76345;DHT22;65160;50.504;3.666;2023-02-22T11:44:30;9.93;82.31
76345;DHT22;65160;50.504;3.666;2023-02-22T11:46:57;9.95;82.62
76345;DHT22;65160;50.504;3.666;2023-02-22T11:49:42;9.90;82.86
76345;DHT22;65160;50.504;3.666;2023-02-22T11:52:39;9.96;82.98
76345;DHT22;65160;50.504;3.666;2023-02-22T11:55:17;9.90;82.96
76345;DHT22;65160;50.504;3.666;2023-02-22T11:59:09;9.93;83.18
76345;DHT22;65160;50.504;3.666;2023-02-22T12:01:11;9.89;83.17
76345;DHT22;65160;50.504;3.666;2023-02-22T12:09:07;9.74;83.75
76345;DHT22;65160;50.504;3.666;2023-02-22T12:14:32;9.59;84.14
76345;DHT22;65160;50.504;3.666;2023-02-22T12:20:23;9.55;84.36
76345;DHT22;65160;50.504;3.666;2023-02-22T12:25:43;9.48;84.75
76345;DHT22;65160;50.504;3.666;2023-02-22T12:28:37;9.40;84.70
76345;DHT22;65160;50.504;3.666;2023-02-22T12:31:11;9.27;85.16
76345;DHT22;65160;50.504;3.666;2023-02-22T12:34:10;9.21;85.85
76345;DHT22;65160;50.504;3.666;2023-02-22T12:36:47;9.23;86.12
76345;DHT22;65160;50.504;3.666;2023-02-22T12:41:54;9.10;86.65
76345;DHT22;65160;50.504;3.666;2023-02-22T12:44:27;9.07;86.84
76345;DHT22;65160;50.504;3.666;2023-02-22T12:46:54;9.10;86.79
76345;DHT22;65160;50.504;3.666;2023-02-22T12:55:00;9.06;87.31
76345;DHT22;65160;50.504;3.666;2023-02-22T12:57:48;8.97;87.89
76345;DHT22;65160;50.504;3.666;2023-02-22T13:00:18;8.80;88.56
76345;DHT22;65160;50.504;3.666;2023-02-22T13:05:37;8.69;89.39
76345;DHT22;65160;50.504;3.666;2023-02-22T13:08:25;8.65;89.53
76345;DHT22;65160;50.504;3.666;2023-02-22T13:16:23;8.66;89.56
76345;DHT22;65160;50.504;3.666;2023-02-22T13:19:02;8.69;89.64
76345;DHT22;65160;50.504;3.666;2023-02-22T13:21:54;8.72;89.55
76345;DHT22;65160;50.504;3.666;2023-02-22T13:24:26;8.75;89.62
76345;DHT22;65160;50.504;3.666;2023-02-22T13:27:05;8.72;89.70
76345;DHT22;65160;50.504;3.666;2023-02-22T13:29:36;8.68;89.92
76345;DHT22;65160;50.504;3.666;2023-02-22T13:38:10;8.69;90.26
76345;DHT22;65160;50.504;3.666;2023-02-22T13:46:25;8.68;90.85
76345;DHT22;65160;50.504;3.666;2023-02-22T13:52:16;8.65;91.07
76345;DHT22;65160;50.504;3.666;2023-02-22T13:54:58;8.62;91.05
76345;DHT22;65160;50.504;3.666;2023-02-22T14:08:00;8.80;90.63
76345;DHT22;65160;50.504;3.666;2023-02-22T14:16:29;8.77;90.61
76345;DHT22;65160;50.504;3.666;2023-02-22T14:19:16;8.76;90.58
76345;DHT22;65160;50.504;3.666;2023-02-22T14:24:22;8.79;90.55
76345;DHT22;65160;50.504;3.666;2023-02-22T14:26:57;8.82;90.50
76345;DHT22;65160;50.504;3.666;2023-02-22T14:29:23;8.87;90.45
76345;DHT22;65160;50.504;3.666;2023-02-22T14:37:26;8.79;90.48
76345;DHT22;65160;50.504;3.666;2023-02-22T14:39:58;8.83;90.38
76345;DHT22;65160;50.504;3.666;2023-02-22T14:50:20;8.87;90.36
76345;DHT22;65160;50.504;3.666;2023-02-22T14:52:58;8.89;90.30
76345;DHT22;65160;50.504;3.666;2023-02-22T14:55:26;8.92;90.15
76345;DHT22;65160;50.504;3.666;2023-02-22T14:58:07;8.96;89.95
76345;DHT22;65160;50.504;3.666;2023-02-22T15:00:43;8.96;89.94
76345;DHT22;65160;50.504;3.666;2023-02-22T15:03:29;9.04;89.73
76345;DHT22;65160;50.504;3.666;2023-02-22T15:06:06;8.97;89.80
76345;DHT22;65160;50.504;3.666;2023-02-22T15:08:42;8.97;89.81
76345;DHT22;65160;50.504;3.666;2023-02-22T15:11:24;9.07;89.25
76345;DHT22;65160;50.504;3.666;2023-02-22T15:13:53;9.04;89.22
76345;DHT22;65160;50.504;3.666;2023-02-22T15:16:20;9.04;89.27
76345;DHT22;65160;50.504;3.666;2023-02-22T15:18:54;9.02;89.19
76345;DHT22;65160;50.504;3.666;2023-02-22T15:21:26;9.03;89.24
76345;DHT22;65160;50.504;3.666;2023-02-22T15:24:03;9.02;89.25
76345;DHT22;65160;50.504;3.666;2023-02-22T15:26:42;9.02;89.03
76345;DHT22;65160;50.504;3.666;2023-02-22T15:29:20;9.04;88.98
76345;DHT22;65160;50.504;3.666;2023-02-22T15:31:50;9.02;89.06
76345;DHT22;65160;50.504;3.666;2023-02-22T15:34:18;9.03;88.90
76345;DHT22;65160;50.504;3.666;2023-02-22T15:36:50;9.06;88.77
76345;DHT22;65160;50.504;3.666;2023-02-22T15:39:28;9.09;88.62
76345;DHT22;65160;50.504;3.666;2023-02-22T15:42:12;9.04;88.72
76345;DHT22;65160;50.504;3.666;2023-02-22T15:44:49;9.07;88.79
76345;DHT22;65160;50.504;3.666;2023-02-22T15:47:17;9.02;89.01
76345;DHT22;65160;50.504;3.666;2023-02-22T15:49:44;9.04;89.14
76345;DHT22;65160;50.504;3.666;2023-02-22T15:52:20;9.09;88.94
76345;DHT22;65160;50.504;3.666;2023-02-22T15:54:49;9.06;89.14
76345;DHT22;65160;50.504;3.666;2023-02-22T15:57:17;9.07;89.03
76345;DHT22;65160;50.504;3.666;2023-02-22T15:59:53;9.04;89.07
76345;DHT22;65160;50.504;3.666;2023-02-22T16:04:59;9.06;88.74
76345;DHT22;65160;50.504;3.666;2023-02-22T16:07:25;9.03;88.83
76345;DHT22;65160;50.504;3.666;2023-02-22T16:09:51;8.97;89.05
76345;DHT22;65160;50.504;3.666;2023-02-22T16:14:45;9.04;89.24
76345;DHT22;65160;50.504;3.666;2023-02-22T16:17:35;9.04;88.80
76345;DHT22;65160;50.504;3.666;2023-02-22T16:22:40;9.03;88.73
76345;DHT22;65160;50.504;3.666;2023-02-22T16:27:57;9.11;88.48
76345;DHT22;65160;50.504;3.666;2023-02-22T16:30:30;9.11;88.52
76345;DHT22;65160;50.504;3.666;2023-02-22T16:32:57;9.13;88.40
76345;DHT22;65160;50.504;3.666;2023-02-22T16:35:27;9.14;88.30
76345;DHT22;65160;50.504;3.666;2023-02-22T16:38:04;9.11;88.42
76345;DHT22;65160;50.504;3.666;2023-02-22T16:40:44;9.11;88.23
76345;DHT22;65160;50.504;3.666;2023-02-22T16:43:13;9.10;88.42
76345;DHT22;65160;50.504;3.666;2023-02-22T16:45:39;9.11;88.42
76345;DHT22;65160;50.504;3.666;2023-02-22T16:48:14;9.17;88.15
76345;DHT22;65160;50.504;3.666;2023-02-22T16:50:41;9.07;88.31
76345;DHT22;65160;50.504;3.666;2023-02-22T16:53:06;9.04;88.45
76345;DHT22;65160;50.504;3.666;2023-02-22T16:55:33;9.02;88.68
76345;DHT22;65160;50.504;3.666;2023-02-22T16:58:01;8.99;88.72
76345;DHT22;65160;50.504;3.666;2023-02-22T17:00:28;9.13;88.37
76345;DHT22;65160;50.504;3.666;2023-02-22T17:02:58;9.13;88.20
76345;DHT22;65160;50.504;3.666;2023-02-22T17:05:23;9.14;88.11
76345;DHT22;65160;50.504;3.666;2023-02-22T17:07:49;9.11;88.09
76345;DHT22;65160;50.504;3.666;2023-02-22T17:10:18;9.04;88.25
76345;DHT22;65160;50.504;3.666;2023-02-22T17:12:45;9.02;88.35
76345;DHT22;65160;50.504;3.666;2023-02-22T17:15:27;9.02;88.41
76345;DHT22;65160;50.504;3.666;2023-02-22T17:17:54;9.03;88.50
76345;DHT22;65160;50.504;3.666;2023-02-22T17:20:21;8.99;88.65
76345;DHT22;65160;50.504;3.666;2023-02-22T17:25:29;8.92;88.64
76345;DHT22;65160;50.504;3.666;2023-02-22T17:27:55;8.92;88.69
76345;DHT22;65160;50.504;3.666;2023-02-22T17:30:21;8.89;88.84
76345;DHT22;65160;50.504;3.666;2023-02-22T17:32:48;8.86;88.99
76345;DHT22;65160;50.504;3.666;2023-02-22T17:35:16;8.90;88.87
76345;DHT22;65160;50.504;3.666;2023-02-22T17:37:42;8.94;88.71
76345;DHT22;65160;50.504;3.666;2023-02-22T17:40:10;8.92;88.69
76345;DHT22;65160;50.504;3.666;2023-02-22T17:42:39;8.93;88.74
76345;DHT22;65160;50.504;3.666;2023-02-22T17:45:05;8.89;88.75
76345;DHT22;65160;50.504;3.666;2023-02-22T17:47:32;8.82;89.08
76345;DHT22;65160;50.504;3.666;2023-02-22T17:49:57;8.79;89.42
76345;DHT22;65160;50.504;3.666;2023-02-22T17:52:23;8.87;89.99
76345;DHT22;65160;50.504;3.666;2023-02-22T17:54:48;8.76;90.02
76345;DHT22;65160;50.504;3.666;2023-02-22T17:57:15;8.71;90.34
76345;DHT22;65160;50.504;3.666;2023-02-22T17:59:41;8.71;90.58
76345;DHT22;65160;50.504;3.666;2023-02-22T18:02:06;8.68;90.64
76345;DHT22;65160;50.504;3.666;2023-02-22T18:04:33;8.76;90.56
76345;DHT22;65160;50.504;3.666;2023-02-22T18:07:03;8.69;90.81
76345;DHT22;65160;50.504;3.666;2023-02-22T18:09:29;8.58;91.13
76345;DHT22;65160;50.504;3.666;2023-02-22T18:11:54;8.48;91.63
76345;DHT22;65160;50.504;3.666;2023-02-22T18:14:20;8.49;92.10
76345;DHT22;65160;50.504;3.666;2023-02-22T18:16:46;8.51;92.32
76345;DHT22;65160;50.504;3.666;2023-02-22T18:19:11;8.54;92.57
76345;DHT22;65160;50.504;3.666;2023-02-22T18:21:37;8.49;92.69
76345;DHT22;65160;50.504;3.666;2023-02-22T18:24:03;8.45;92.91
76345;DHT22;65160;50.504;3.666;2023-02-22T18:26:28;8.45;93.03